LFBT/LDE METAR and TAF weather

Enter ICAO airport designator
Station Type Date Time Source
LFBT METAR 2020/10/20 17:30 UTC NOAA

LFBT 201730Z AUTO VRB02KT CAVOK 15/12 Q1004 BECMG 18015G25KT


Station Type Date Time Source
LFBT Decoded METAR 2020/10/20 17:30 UTC NOAA

Tarbes Ossun Lourdes, France (LFBT) 43-11N 000-00W 363M
Oct 20, 2020 - 01:30 PM EDT / 2020.10.20 1730 UTC
Wind: Variable at 2 MPH (2 KT):0
Visibility: greater than 7 mile(s):0
Temperature: 59 F (15 C)
Dew Point: 53 F (12 C)
Relative Humidity: 82%
Pressure (altimeter): 29.65 in. Hg (1004 hPa)
ob: LFBT 201730Z AUTO VRB02KT CAVOK 15/12 Q1004 BECMG 18015G25KT
cycle: 17

Station Type Date Time Source
LFBT TAF 2020/10/20 18:21 UTC NOAA

TAF LFBT 201700Z 2018/2118 18010KT 9999 BKN090
BECMG 2018/2020 18015G25KT
TEMPO 2023/2103 18020G35KT
BECMG 2108/2110 VRB03KT

Example: see airport list